Time;durP1;ratioP1;P1;durP2;ratioP2;P2;SDS_P1;SDS_P2;PMS_P1;PMS_P2;Temp;Humidity;BMP_temperature;BMP_pressure;BME280_temperature;BME280_humidity;BME280_pressure;Samples;Min_cycle;Max_cycle;Signal;HPM_P1;HPM_P2
2023/06/03 00:00:21;;;;;;;2.60;2.40;;;16.10;95.60;;;16.49;nan;100735.34;5028871;28;21071;-67
2023/06/03 00:02:49;;;;;;;2.53;2.33;;;16.10;95.90;;;16.44;nan;100732.31;5012831;28;20593;-67
2023/06/03 00:05:17;;;;;;;3.00;2.30;;;16.10;96.20;;;16.39;nan;100735.38;5012431;28;20653;-68
2023/06/03 00:07:45;;;;;;;3.80;2.30;;;16.00;96.60;;;16.35;nan;100739.28;5017016;28;21009;-68
2023/06/03 00:10:12;;;;;;;3.10;2.23;;;15.90;97.00;;;16.32;nan;100726.41;5029482;28;20664;-68
2023/06/03 00:12:40;;;;;;;6.07;2.50;;;15.90;97.20;;;16.32;nan;100734.31;5023932;28;20982;-67
2023/06/03 00:15:07;;;;;;;2.57;2.37;;;15.90;97.60;;;16.27;nan;100728.63;5012341;28;20593;-67
2023/06/03 00:17:34;;;;;;;3.60;2.17;;;15.90;98.00;;;16.25;nan;100738.47;5011002;28;20653;-67
2023/06/03 00:20:06;;;;;;;2.30;2.10;;;15.80;98.30;;;16.21;nan;100731.84;5024046;28;20678;-68
2023/06/03 00:22:38;;;;;;;2.13;2.00;;;15.80;98.70;;;16.20;nan;100738.09;5017932;28;20632;-67
2023/06/03 00:25:07;;;;;;;2.97;2.63;;;15.80;98.80;;;16.20;nan;100738.09;5021211;28;20609;-69
2023/06/03 00:27:35;;;;;;;2.37;2.07;;;15.80;99.20;;;16.16;nan;100729.63;5011774;28;20598;-67
2023/06/03 00:30:07;;;;;;;2.13;1.93;;;15.80;99.50;;;16.12;nan;100727.47;5011424;28;20671;-68
2023/06/03 00:32:34;;;;;;;1.70;1.60;;;15.70;99.90;;;16.08;nan;100732.16;5031651;28;20624;-68
2023/06/03 00:35:01;;;;;;;5.23;1.90;;;15.70;99.90;;;16.07;nan;100734.94;5024050;28;20637;-67
2023/06/03 00:37:29;;;;;;;2.50;2.30;;;15.70;99.90;;;15.97;nan;100721.78;5025302;28;20624;-67
2023/06/03 00:39:56;;;;;;;3.13;2.17;;;15.60;99.90;;;15.89;nan;100723.47;5014790;28;20673;-69
2023/06/03 00:42:23;;;;;;;2.60;2.20;;;15.50;99.90;;;15.79;nan;100733.19;5010438;28;20691;-67
2023/06/03 00:44:50;;;;;;;2.43;2.23;;;15.50;99.90;;;15.78;nan;100740.25;5011707;28;20597;-68
2023/06/03 00:47:19;;;;;;;1.80;1.70;;;15.40;99.90;;;15.73;nan;100746.91;5014349;28;21194;-67
2023/06/03 00:49:46;;;;;;;1.47;1.40;;;15.40;99.90;;;15.68;nan;100743.88;5009345;28;21192;-66
2023/06/03 00:52:16;;;;;;;3.43;2.00;;;15.30;99.90;;;15.65;nan;100744.16;5030517;28;20678;-69
2023/06/03 00:54:43;;;;;;;2.10;1.90;;;15.30;99.90;;;15.64;nan;100738.06;5030906;28;20629;-68
2023/06/03 00:57:11;;;;;;;2.60;2.30;;;15.30;99.90;;;15.58;nan;100733.38;5008160;28;20690;-67
2023/06/03 00:59:38;;;;;;;3.07;1.67;;;15.20;99.90;;;15.50;nan;100734.06;5011471;28;20661;-68
2023/06/03 01:02:05;;;;;;;1.87;1.77;;;15.20;99.90;;;15.49;nan;100735.03;5025504;28;20625;-68
2023/06/03 01:04:32;;;;;;;3.23;2.27;;;15.10;99.90;;;15.43;nan;100722.44;5031150;28;20589;-67
2023/06/03 01:07:27;;;;;;;2.50;2.40;;;15.10;99.90;;;15.32;nan;100726.97;5024966;28;20647;-68
2023/06/03 01:10:34;;;;;;;1.87;1.70;;;15.00;99.90;;;15.27;nan;100723.91;5029340;28;20653;-67
2023/06/03 01:13:17;;;;;;;2.70;2.03;;;14.90;99.90;;;15.31;nan;100712.19;5010058;28;20632;-65
2023/06/03 01:15:52;;;;;;;4.93;2.30;;;15.00;99.90;;;15.33;nan;100726.81;5033360;28;20612;-69
2023/06/03 01:18:20;;;;;;;3.03;2.27;;;15.00;99.90;;;15.26;nan;100722.28;5021361;28;20631;-67
2023/06/03 01:20:48;;;;;;;3.67;1.90;;;14.90;99.90;;;15.26;nan;100727.53;5029129;28;20664;-67
2023/06/03 01:23:23;;;;;;;2.47;1.97;;;14.90;99.90;;;15.21;nan;100727.94;5033239;28;20648;-67
2023/06/03 01:25:53;;;;;;;2.37;2.00;;;14.90;99.90;;;15.22;nan;100718.25;5031861;28;20624;-69
2023/06/03 01:28:20;;;;;;;2.03;1.50;;;14.90;99.90;;;15.24;nan;100714.53;5022067;28;20645;-66
2023/06/03 01:30:48;;;;;;;3.40;1.63;;;14.90;99.90;;;15.22;nan;100715.63;5022180;28;21370;-67
2023/06/03 01:33:20;;;;;;;1.87;1.77;;;14.90;99.90;;;15.15;nan;100723.22;5021211;28;20637;-68
2023/06/03 01:35:50;;;;;;;5.40;1.87;;;14.80;99.90;;;15.12;nan;100710.34;5019090;28;20641;-68
2023/06/03 01:38:17;;;;;;;3.50;2.10;;;14.80;99.90;;;15.06;nan;100705.66;5023853;28;20636;-68
2023/06/03 01:40:46;;;;;;;4.23;2.60;;;14.70;99.90;;;14.99;nan;100720.28;5029187;28;20680;-68
2023/06/03 01:43:13;;;;;;;2.10;1.47;;;14.70;99.90;;;14.96;nan;100712.69;5017516;28;20643;-65
2023/06/03 01:45:40;;;;;;;2.77;1.90;;;14.60;99.90;;;14.97;nan;100716.16;5025718;28;21017;-68
2023/06/03 01:48:07;;;;;;;3.70;2.27;;;14.60;99.90;;;14.96;nan;100717.94;5030174;28;20620;-68
2023/06/03 01:50:34;;;;;;;3.07;2.03;;;14.60;99.90;;;14.94;nan;100714.63;5016988;28;20721;-68
2023/06/03 01:53:01;;;;;;;1.53;1.43;;;14.60;99.90;;;14.86;nan;100713.66;5031398;28;20636;-67
2023/06/03 01:55:28;;;;;;;1.97;1.70;;;14.50;99.90;;;14.80;nan;100715.00;5020506;28;20651;-67
2023/06/03 01:57:55;;;;;;;1.93;1.40;;;14.40;99.90;;;14.78;nan;100714.31;5029256;28;20620;-68
2023/06/03 02:00:22;;;;;;;1.90;1.80;;;14.40;99.90;;;14.75;nan;100714.59;5010534;28;20684;-68
2023/06/03 02:02:49;;;;;;;2.83;2.43;;;14.40;99.90;;;14.68;nan;100722.19;5018963;28;20639;-69
2023/06/03 02:05:17;;;;;;;3.97;2.27;;;14.40;99.90;;;14.68;nan;100716.09;5023444;28;20636;-68
2023/06/03 02:07:44;;;;;;;2.30;2.20;;;14.30;99.90;;;14.67;nan;100715.25;5020722;28;20608;-69
2023/06/03 02:10:11;;;;;;;2.50;1.70;;;14.30;99.90;;;14.64;nan;100717.31;5030097;28;20651;-67
2023/06/03 02:12:38;;;;;;;3.87;2.40;;;14.30;99.90;;;14.62;nan;100720.09;5026510;28;20644;-68
2023/06/03 02:15:07;;;;;;;7.23;2.70;;;14.30;99.90;;;14.62;nan;100717.47;5025276;28;20623;-68
2023/06/03 02:17:34;;;;;;;4.10;2.47;;;14.30;99.90;;;14.62;nan;100719.25;5028410;28;20605;-69
2023/06/03 02:20:01;;;;;;;2.40;1.97;;;14.30;99.90;;;14.58;nan;100718.69;5030332;28;20722;-67
2023/06/03 02:22:28;;;;;;;2.67;2.40;;;14.20;99.90;;;14.57;nan;100713.56;5023754;28;20643;-69
2023/06/03 02:24:57;;;;;;;1.87;1.77;;;14.20;99.90;;;14.56;nan;100715.38;5027739;28;21152;-68
2023/06/03 02:27:27;;;;;;;2.40;2.20;;;14.20;99.90;;;14.55;nan;100715.50;5022043;28;21200;-69
2023/06/03 02:29:55;;;;;;;1.83;1.70;;;14.20;99.90;;;14.53;nan;100709.53;5023279;28;20679;-68
2023/06/03 02:32:22;;;;;;;3.10;2.20;;;14.20;99.90;;;14.48;nan;100722.25;5022472;28;20628;-67
2023/06/03 02:34:50;;;;;;;2.33;2.10;;;14.20;99.90;;;14.40;nan;100727.31;5028043;28;20667;-68
2023/06/03 02:37:17;;;;;;;3.23;2.53;;;14.10;99.90;;;14.36;nan;100726.75;5026648;28;20637;-68
2023/06/03 02:39:44;;;;;;;1.90;1.80;;;14.00;99.90;;;14.38;nan;100722.22;5018466;28;20695;-67
2023/06/03 02:42:11;;;;;;;2.47;2.20;;;14.10;99.90;;;14.38;nan;100724.00;5017529;28;20645;-67
2023/06/03 02:44:38;;;;;;;2.87;2.57;;;14.00;99.90;;;14.34;nan;100719.97;5024378;28;20620;-69
2023/06/03 02:47:06;;;;;;;2.47;2.20;;;14.10;99.90;;;14.35;nan;100722.47;5018467;28;20637;-65
2023/06/03 02:49:33;;;;;;;2.63;2.20;;;14.00;99.90;;;14.36;nan;100718.06;5008536;28;20638;-68
2023/06/03 02:52:00;;;;;;;3.47;2.30;;;14.00;99.90;;;14.36;nan;100715.44;5014143;28;22706;-69
2023/06/03 02:54:28;;;;;;;1.50;1.40;;;14.00;99.90;;;14.33;nan;100720.97;5019060;28;20635;-69
2023/06/03 02:56:55;;;;;;;3.33;2.10;;;14.00;99.90;;;14.30;nan;100723.84;5025885;28;20647;-69
2023/06/03 02:59:22;;;;;;;1.80;1.70;;;14.00;99.90;;;14.27;nan;100721.47;5023664;28;20676;-66
2023/06/03 03:01:50;;;;;;;3.17;2.60;;;13.90;99.90;;;14.29;nan;100730.06;5028119;28;20656;-67
2023/06/03 03:04:17;;;;;;;3.93;2.30;;;13.90;99.90;;;14.32;nan;100732.41;5025349;28;20648;-69
2023/06/03 03:06:44;;;;;;;3.30;1.87;;;14.00;99.90;;;14.29;nan;100740.56;5027952;28;20629;-67
2023/06/03 03:09:11;;;;;;;3.53;2.50;;;14.00;99.90;;;14.22;nan;100734.97;5028870;28;20624;-69
2023/06/03 03:11:38;;;;;;;2.83;2.57;;;13.90;99.90;;;14.24;nan;100746.16;5030435;28;20649;-69
2023/06/03 03:14:06;;;;;;;2.97;2.10;;;14.00;99.90;;;14.17;nan;100739.75;5025873;28;20675;-68
2023/06/03 03:16:35;;;;;;;2.60;2.40;;;13.90;99.90;;;14.16;nan;100742.53;5029895;28;20620;-69
2023/06/03 03:19:02;;;;;;;2.33;2.10;;;13.90;99.90;;;14.11;nan;100742.91;5025174;28;20640;-66
2023/06/03 03:21:29;;;;;;;3.03;2.13;;;13.80;99.90;;;14.08;nan;100739.69;5022203;28;21256;-68
2023/06/03 03:23:56;;;;;;;2.20;2.10;;;13.70;99.90;;;14.07;nan;100744.13;5031780;28;20604;-67
2023/06/03 03:26:25;;;;;;;1.63;1.53;;;13.70;99.90;;;14.03;nan;100743.53;5049154;28;20698;-68
2023/06/03 03:28:53;;;;;;;3.10;2.50;;;13.70;99.90;;;14.00;nan;100742.97;5039985;28;20644;-67
2023/06/03 03:31:20;;;;;;;3.37;2.50;;;13.70;99.90;;;13.93;nan;100732.19;5011813;28;20665;-68
2023/06/03 03:33:51;;;;;;;2.57;2.10;;;13.60;99.90;;;13.85;nan;100739.88;5014120;28;21264;-67
2023/06/03 03:36:24;;;;;;;2.23;2.03;;;13.60;99.90;;;13.89;nan;100736.00;5025136;28;21211;-68
2023/06/03 03:39:01;;;;;;;3.00;2.60;;;13.60;99.90;;;13.84;nan;100740.00;5009262;28;20602;-68
2023/06/03 03:41:28;;;;;;;2.40;2.30;;;13.60;99.90;;;13.86;nan;100751.19;5009101;28;20695;-68
2023/06/03 03:43:57;;;;;;;2.77;2.50;;;13.50;99.90;;;13.88;nan;100744.03;5012316;28;20664;-68
2023/06/03 03:46:24;;;;;;;3.70;2.67;;;13.60;99.90;;;13.90;nan;100750.81;5021219;28;20641;-69
2023/06/03 03:48:51;;;;;;;2.77;2.30;;;13.60;99.90;;;13.91;nan;100752.47;5019838;28;20648;-67
2023/06/03 03:51:18;;;;;;;2.10;2.00;;;13.60;99.90;;;13.95;nan;100746.00;5012902;28;21043;-68
2023/06/03 03:53:47;;;;;;;2.73;2.53;;;13.60;99.90;;;13.99;nan;100747.41;5010385;28;20652;-67
2023/06/03 03:56:20;;;;;;;3.13;2.83;;;13.70;99.90;;;14.02;nan;100746.31;5025835;28;20627;-69
2023/06/03 03:58:48;;;;;;;4.10;2.20;;;13.70;99.90;;;14.07;nan;100751.16;5026828;28;20647;-65
2023/06/03 04:01:18;;;;;;;3.30;2.50;;;13.70;99.90;;;14.16;nan;100747.78;5028437;28;20699;-67
2023/06/03 04:03:48;;;;;;;4.80;2.80;;;13.90;99.90;;;14.27;nan;100756.38;5023576;28;20636;-68
2023/06/03 04:06:32;;;;;;;2.60;2.50;;;13.90;99.90;;;14.35;nan;100755.78;5020562;28;20628;-68
2023/06/03 04:09:00;;;;;;;3.80;2.53;;;14.00;99.90;;;14.48;nan;100748.53;5030483;28;20612;-68
2023/06/03 04:11:30;;;;;;;1.90;1.80;;;14.20;99.90;;;14.56;nan;100746.88;5018373;28;20675;-67
2023/06/03 04:13:58;;;;;;;2.47;2.30;;;14.20;99.90;;;14.64;nan;100748.84;5018653;28;20656;-67
2023/06/03 04:16:56;;;;;;;2.30;2.20;;;14.30;99.90;;;14.72;nan;100757.72;5022114;28;20620;-67
2023/06/03 04:19:32;;;;;;;3.00;2.57;;;14.40;99.90;;;14.77;nan;100762.56;5023378;28;20644;-68
2023/06/03 04:22:00;;;;;;;3.10;2.70;;;14.40;99.90;;;14.89;nan;100758.84;5023380;28;20647;-68
2023/06/03 04:24:28;;;;;;;3.33;2.23;;;14.50;99.90;;;15.04;nan;100757.50;5026179;28;21172;-67
2023/06/03 04:26:55;;;;;;;2.77;2.50;;;14.80;99.90;;;15.11;nan;100761.28;5015200;28;20617;-68
2023/06/03 04:29:23;;;;;;;3.20;2.47;;;14.80;99.90;;;15.19;nan;100761.41;5011906;28;20629;-67
2023/06/03 04:31:50;;;;;;;2.50;2.30;;;14.90;99.90;;;15.29;nan;100762.25;5012231;28;20657;-67
2023/06/03 04:34:17;;;;;;;2.60;2.40;;;15.00;99.90;;;15.46;nan;100764.22;5020605;28;20720;-68
2023/06/03 04:36:44;;;;;;;5.10;2.77;;;15.10;99.90;;;15.55;nan;100767.81;5019877;28;20648;-67
2023/06/03 04:39:11;;;;;;;9.97;2.27;;;15.30;99.90;;;15.69;nan;100767.41;5030409;28;21258;-69
2023/06/03 04:41:38;;;;;;;2.93;2.73;;;15.40;99.90;;;15.83;nan;100766.16;5028751;28;20655;-68
2023/06/03 04:44:08;;;;;;;2.50;2.23;;;15.50;99.90;;;15.97;nan;100771.00;5016000;28;20613;-68
2023/06/03 04:46:35;;;;;;;2.57;2.37;;;15.60;99.90;;;16.14;nan;100755.28;5012792;28;20633;-69
2023/06/03 04:49:03;;;;;;;4.03;2.60;;;15.80;99.90;;;16.33;nan;100764.09;5028782;28;20682;-68
2023/06/03 04:51:35;;;;;;;3.50;3.10;;;16.00;99.90;;;16.49;nan;100756.41;5023191;28;20671;-67
2023/06/03 04:54:03;;;;;;;3.20;2.43;;;16.10;99.90;;;16.58;nan;100761.69;5026623;28;20994;-66
2023/06/03 04:56:30;;;;;;;3.97;2.70;;;16.30;99.90;;;16.64;nan;100757.63;5023697;28;20643;-67
2023/06/03 04:59:00;;;;;;;4.03;2.30;;;16.30;99.90;;;16.73;nan;100754.13;5030765;28;20611;-70
2023/06/03 05:01:28;;;;;;;2.30;2.07;;;16.40;99.90;;;16.92;nan;100752.22;5020775;28;20676;-68
2023/06/03 05:03:55;;;;;;;4.00;2.67;;;16.60;99.90;;;16.98;nan;100753.41;5017625;28;20617;-69
2023/06/03 05:06:23;;;;;;;2.50;2.40;;;16.70;99.90;;;17.14;nan;100758.88;5011876;28;20664;-68
2023/06/03 05:08:51;;;;;;;3.23;2.57;;;16.80;99.90;;;17.28;nan;100762.78;5010648;28;21051;-68
2023/06/03 05:11:18;;;;;;;3.30;3.10;;;16.90;99.90;;;17.36;nan;100757.59;5012548;28;20654;-69
2023/06/03 05:13:45;;;;;;;3.30;3.00;;;17.00;99.90;;;17.45;nan;100759.31;5010406;28;20641;-68
2023/06/03 05:16:13;;;;;;;2.80;2.20;;;17.10;99.90;;;17.63;nan;100768.91;5011810;28;20617;-68
2023/06/03 05:18:40;;;;;;;2.83;2.63;;;17.30;99.90;;;17.81;nan;100751.25;5016580;28;20637;-69
2023/06/03 05:21:07;;;;;;;2.80;2.27;;;17.50;99.90;;;18.00;nan;100750.22;5024616;28;20673;-69
2023/06/03 05:23:34;;;;;;;2.60;2.47;;;17.60;99.90;;;18.15;nan;100756.59;5030244;28;20628;-68
2023/06/03 05:26:02;;;;;;;2.83;2.73;;;17.80;99.90;;;18.28;nan;100764.94;5012577;28;20637;-69
2023/06/03 05:28:30;;;;;;;3.07;2.17;;;17.90;99.90;;;18.46;nan;100768.34;5010201;28;20699;-66
2023/06/03 05:30:57;;;;;;;3.23;2.70;;;18.10;99.90;;;18.62;nan;100770.25;5009777;28;21217;-68
2023/06/03 05:33:29;;;;;;;2.60;2.40;;;18.20;99.90;;;18.82;nan;100762.91;5010065;28;21418;-69
2023/06/03 05:35:57;;;;;;;1.80;1.70;;;18.40;99.90;;;19.00;nan;100775.03;5011998;28;20637;-68
2023/06/03 05:38:25;;;;;;;2.07;1.90;;;18.60;99.80;;;19.11;nan;100763.31;5019097;28;20640;-70
2023/06/03 05:40:52;;;;;;;2.30;2.20;;;18.80;99.40;;;19.23;nan;100767.31;5011035;28;20670;-68
2023/06/03 05:43:19;;;;;;;6.07;1.93;;;18.90;99.40;;;19.44;nan;100774.84;5030081;28;20601;-69
2023/06/03 05:45:46;;;;;;;2.40;2.23;;;19.00;98.60;;;19.56;nan;100766.41;5024363;28;20648;-69
2023/06/03 05:48:14;;;;;;;2.80;2.60;;;19.20;98.20;;;19.66;nan;100753.81;5021821;28;20687;-69
2023/06/03 05:51:01;;;;;;;4.10;3.33;;;19.30;97.60;;;19.79;nan;100764.75;5019523;28;20672;-69
2023/06/03 05:53:28;;;;;;;2.10;2.00;;;19.40;97.60;;;19.91;nan;100765.25;5021549;28;20698;-69
2023/06/03 05:55:55;;;;;;;4.10;2.53;;;19.50;97.10;;;20.07;nan;100768.69;5024975;28;20645;-68
2023/06/03 05:58:23;;;;;;;3.67;3.00;;;19.70;96.80;;;20.27;nan;100755.13;5020904;28;20631;-68
2023/06/03 06:00:50;;;;;;;2.70;2.50;;;19.90;96.50;;;20.47;nan;100764.31;5022127;28;20691;-68
2023/06/03 06:03:18;;;;;;;5.33;3.40;;;20.10;95.80;;;20.61;nan;100760.97;5022059;28;20619;-70
2023/06/03 06:05:45;;;;;;;2.03;1.93;;;20.20;95.40;;;20.75;nan;100762.88;5021192;28;20636;-69
2023/06/03 06:08:12;;;;;;;3.13;2.73;;;20.30;95.40;;;20.97;nan;100762.13;5022730;28;20633;-69
2023/06/03 06:10:39;;;;;;;3.20;2.90;;;20.60;95.00;;;21.19;nan;100763.22;5018167;28;20677;-68
2023/06/03 06:13:06;;;;;;;3.20;2.90;;;20.70;95.00;;;21.39;nan;100767.88;5012180;28;20990;-69
2023/06/03 06:15:33;;;;;;;3.10;2.77;;;20.90;94.00;;;21.65;nan;100770.16;5018707;28;20631;-68
2023/06/03 06:18:01;;;;;;;4.60;3.10;;;21.20;93.40;;;22.07;nan;100761.66;5014913;28;20640;-69
2023/06/03 06:20:28;;;;;;;2.40;2.20;;;21.50;93.00;;;22.55;nan;100776.28;5018548;28;20684;-69
2023/06/03 06:22:55;;;;;;;6.53;3.40;;;22.00;91.90;;;22.86;nan;100764.44;5023361;28;20647;-69
2023/06/03 06:25:22;;;;;;;3.50;3.20;;;22.40;91.00;;;23.02;nan;100766.88;5030043;28;21069;-68
2023/06/03 06:27:50;;;;;;;4.47;3.27;;;22.50;90.30;;;23.31;nan;100767.81;5031081;28;20644;-69
2023/06/03 06:30:17;;;;;;;3.30;3.00;;;22.80;89.60;;;23.37;nan;100773.25;5016798;28;20673;-70
2023/06/03 06:32:49;;;;;;;4.40;2.80;;;23.00;88.60;;;23.77;nan;100767.25;5018777;28;21383;-69
2023/06/03 06:35:18;;;;;;;3.37;2.87;;;23.20;87.80;;;24.18;nan;100761.25;5024984;28;20605;-69
2023/06/03 06:37:46;;;;;;;3.43;2.60;;;23.60;86.30;;;24.61;nan;100768.06;5024717;28;20679;-68
2023/06/03 06:40:20;;;;;;;2.63;1.87;;;24.20;83.80;;;25.15;nan;100773.44;5018335;28;21243;-72
2023/06/03 06:42:47;;;;;;;2.50;2.30;;;24.70;81.40;;;25.54;nan;100773.53;5012099;28;21208;-66
2023/06/03 06:45:22;;;;;;;3.50;2.30;;;25.10;79.70;;;26.24;nan;100774.81;5021374;28;20632;-71
2023/06/03 06:48:14;;;;;;;2.10;2.00;;;25.70;78.00;;;27.11;nan;100769.78;5020700;28;20616;-71
2023/06/03 06:50:59;;;;;;;2.67;2.47;;;26.50;75.50;;;27.39;nan;100768.41;5018923;28;20680;-70
2023/06/03 06:53:28;;;;;;;2.20;2.00;;;26.90;72.10;;;27.76;nan;100774.72;5022531;28;20629;-71
2023/06/03 06:56:03;;;;;;;3.13;2.83;;;27.40;70.80;;;27.89;nan;100768.44;5008115;28;20649;-70
2023/06/03 06:58:38;;;;;;;3.20;2.90;;;27.70;69.00;;;28.33;nan;100776.28;5010352;28;21116;-71
2023/06/03 07:01:08;;;;;;;3.60;3.30;;;28.00;67.60;;;29.03;nan;100778.38;5021248;28;21232;-70
2023/06/03 07:03:37;;;;;;;2.90;2.70;;;28.60;65.70;;;29.57;nan;100784.66;5026944;28;20694;-69
2023/06/03 07:06:04;;;;;;;3.43;3.13;;;29.10;64.10;;;29.86;nan;100775.72;5026476;28;20633;-70
2023/06/03 07:08:32;;;;;;;2.90;2.70;;;29.50;62.50;;;29.89;nan;100778.78;5023831;28;20658;-69
2023/06/03 07:11:03;;;;;;;2.57;2.47;;;29.50;61.50;;;30.44;nan;100773.06;5027778;28;21023;-72
2023/06/03 07:13:30;;;;;;;2.00;1.90;;;29.90;61.00;;;30.75;nan;100777.22;5018156;28;20616;-72
2023/06/03 07:15:58;;;;;;;2.03;1.93;;;30.40;59.80;;;31.22;nan;100787.59;5027280;28;20644;-72
2023/06/03 07:18:26;;;;;;;3.27;2.97;;;30.80;58.30;;;31.42;nan;100773.72;5027844;28;20620;-70
2023/06/03 07:20:55;;;;;;;3.90;3.03;;;31.30;57.00;;;31.30;nan;100773.75;5019342;28;20677;-70
2023/06/03 07:23:26;;;;;;;3.10;2.90;;;31.10;56.30;;;31.90;nan;100779.34;5013940;28;20642;-70
2023/06/03 07:25:55;;;;;;;2.90;2.70;;;31.50;56.10;;;32.44;nan;100766.13;5016007;28;20613;-71
2023/06/03 07:28:35;;;;;;;2.80;2.60;;;32.00;55.10;;;32.68;nan;100781.88;5013499;28;20996;-71
2023/06/03 07:31:06;;;;;;;2.80;2.60;;;32.30;53.80;;;33.07;nan;100774.53;5030095;28;20656;-70
2023/06/03 07:33:54;;;;;;;2.70;2.50;;;32.70;53.40;;;33.16;nan;100772.19;5013667;28;20624;-70
2023/06/03 07:36:24;;;;;;;2.90;2.70;;;32.80;53.00;;;33.53;nan;100770.38;5015587;28;20624;-69
2023/06/03 07:39:03;;;;;;;2.77;2.67;;;33.20;52.30;;;33.87;nan;100770.94;5045913;28;20936;-71
2023/06/03 07:41:41;;;;;;;2.97;2.83;;;33.70;51.10;;;33.94;nan;100774.22;5027800;28;20682;-68
2023/06/03 07:44:14;;;;;;;3.23;2.47;;;33.70;50.50;;;34.07;nan;100773.81;5017411;28;20637;-69
2023/06/03 07:47:08;;;;;;;2.40;2.30;;;33.70;50.80;;;34.22;nan;100765.78;5022991;28;20941;-69
2023/06/03 07:49:35;;;;;;;2.87;2.67;;;34.10;49.70;;;34.42;nan;100779.41;5016196;28;20652;-69
2023/06/03 07:52:02;;;;;;;2.63;2.53;;;34.40;49.50;;;34.52;nan;100774.09;5024720;28;20652;-69
2023/06/03 07:54:29;;;;;;;2.40;2.20;;;34.50;49.30;;;34.58;nan;100772.22;5016096;28;21023;-71
2023/06/03 07:56:57;;;;;;;2.67;2.47;;;34.50;48.90;;;34.60;nan;100768.16;5024146;28;20644;-69
2023/06/03 07:59:26;;;;;;;2.80;2.50;;;34.50;49.10;;;34.20;nan;100784.97;5030474;28;20621;-71
2023/06/03 08:01:53;;;;;;;2.20;2.00;;;34.40;48.20;;;34.60;nan;100768.16;5023655;28;21332;-68
2023/06/03 08:04:20;;;;;;;3.80;3.50;;;34.60;47.80;;;35.47;nan;100768.16;5028598;28;20632;-69
2023/06/03 08:06:52;;;;;;;3.07;2.80;;;35.30;47.40;;;35.98;nan;100768.13;5023451;28;20656;-68
2023/06/03 08:09:35;;;;;;;2.93;2.73;;;36.00;46.90;;;36.33;nan;100779.72;5024820;28;20632;-71
2023/06/03 08:12:08;;;;;;;2.30;2.10;;;36.30;46.10;;;36.23;nan;100779.75;5021798;28;20630;-70
2023/06/03 08:14:38;;;;;;;2.60;2.50;;;36.30;45.40;;;36.63;nan;100780.75;5028163;28;20632;-69
2023/06/03 08:17:12;;;;;;;3.00;2.80;;;36.70;45.30;;;36.30;nan;100780.28;5029468;28;20631;-69
2023/06/03 08:19:41;;;;;;;2.33;2.20;;;36.50;45.10;;;36.69;nan;100774.22;5016201;28;21005;-69
2023/06/03 08:22:42;;;;;;;2.87;2.60;;;36.80;44.70;;;37.04;nan;100784.91;5010614;28;20671;-69
2023/06/03 08:25:09;;;;;;;2.20;2.10;;;37.00;44.50;;;37.04;nan;100783.00;5022604;28;20644;-70
2023/06/03 08:27:37;;;;;;;2.40;2.30;;;37.10;44.40;;;36.82;nan;100777.13;5024399;28;20620;-68
2023/06/03 08:30:05;;;;;;;2.10;2.00;;;37.00;44.10;;;37.10;nan;100783.81;5029016;28;20679;-69
2023/06/03 08:32:34;;;;;;;4.67;3.03;;;37.20;44.00;;;36.97;nan;100771.63;5031381;28;20620;-70
2023/06/03 08:35:02;;;;;;;2.53;2.33;;;37.20;44.20;;;36.92;nan;100779.00;5019925;28;20637;-69
2023/06/03 08:37:30;;;;;;;3.00;2.80;;;37.30;43.40;;;36.63;nan;100770.72;5015388;28;20639;-68
2023/06/03 08:39:58;;;;;;;2.90;2.80;;;37.00;43.80;;;36.92;nan;100781.72;5030925;28;20664;-69
2023/06/03 08:42:36;;;;;;;2.60;2.40;;;37.00;43.70;;;37.87;nan;100791.97;5030214;28;20896;-70
2023/06/03 08:45:05;;;;;;;2.50;2.40;;;37.70;43.70;;;38.43;nan;100775.03;5030651;28;20616;-69
2023/06/03 08:48:07;;;;;;;3.43;3.23;;;38.40;42.70;;;38.94;nan;100773.31;5030690;28;20624;-71
2023/06/03 08:50:36;;;;;;;3.23;3.00;;;38.90;42.10;;;38.94;nan;100781.50;5018810;28;20657;-68
2023/06/03 08:53:09;;;;;;;3.10;2.90;;;39.00;41.90;;;38.97;nan;100782.81;5028414;28;20644;-70
2023/06/03 08:55:39;;;;;;;7.53;2.80;;;38.90;41.90;;;37.03;nan;100778.69;5021761;28;20637;-69
2023/06/03 08:58:26;;;;;;;3.40;2.20;;;38.20;41.80;;;35.95;nan;100766.00;5011613;28;20632;-70
2023/06/03 09:00:59;;;;;;;2.40;2.33;;;36.50;43.10;;;36.51;nan;100762.03;5022902;28;20703;-69
2023/06/03 09:03:27;;;;;;;3.27;2.97;;;36.50;43.50;;;37.64;nan;100772.81;5010603;28;20593;-70
2023/06/03 09:05:55;;;;;;;2.13;2.03;;;37.40;43.20;;;38.47;nan;100768.72;5010684;28;20617;-69
2023/06/03 09:08:23;;;;;;;3.00;2.90;;;38.20;42.40;;;38.62;nan;100773.16;5030602;28;20628;-69
2023/06/03 09:10:51;;;;;;;2.70;2.60;;;38.50;42.10;;;38.79;nan;100779.78;5031140;28;20643;-70
2023/06/03 09:13:19;;;;;;;2.40;2.30;;;38.70;41.70;;;38.37;nan;100771.56;5020758;28;20671;-69
2023/06/03 09:15:49;;;;;;;2.70;2.60;;;38.60;41.60;;;37.74;nan;100764.56;5017426;28;20682;-69
2023/06/03 09:18:17;;;;;;;2.50;2.40;;;38.00;41.90;;;37.19;nan;100766.59;5029705;28;20692;-69
2023/06/03 09:20:44;;;;;;;3.23;2.93;;;37.50;42.00;;;37.70;nan;100767.03;5019386;28;20656;-69
2023/06/03 09:23:12;;;;;;;2.67;2.57;;;37.80;42.00;;;38.54;nan;100762.91;5011032;28;21027;-71
2023/06/03 09:25:40;;;;;;;2.83;2.63;;;38.50;41.60;;;37.93;nan;100763.56;5012938;28;20638;-69
2023/06/03 09:28:07;;;;;;;3.03;2.93;;;38.50;41.10;;;37.88;nan;100769.09;5016978;28;20620;-69
2023/06/03 09:30:35;;;;;;;2.73;2.63;;;38.00;42.10;;;38.35;nan;100756.59;5023345;28;20663;-69
2023/06/03 09:33:02;;;;;;;2.87;2.77;;;38.40;41.60;;;38.90;nan;100766.81;5028944;28;20639;-69
2023/06/03 09:35:30;;;;;;;2.80;2.60;;;38.90;41.50;;;39.53;nan;100772.69;5014614;28;21087;-70
2023/06/03 09:38:04;;;;;;;3.40;3.20;;;39.50;41.10;;;39.96;nan;100767.84;5020468;28;21008;-69
2023/06/03 09:40:33;;;;;;;2.50;2.40;;;40.00;40.60;;;40.46;nan;100775.13;5029148;28;20655;-70
2023/06/03 09:43:00;;;;;;;2.70;2.60;;;40.60;39.80;;;40.56;nan;100780.38;5018285;28;20669;-68
2023/06/03 09:45:34;;;;;;;3.03;2.83;;;40.70;39.80;;;40.97;nan;100770.22;5011221;28;20993;-69
2023/06/03 09:48:02;;;;;;;2.37;2.20;;;41.00;40.40;;;40.91;nan;100773.38;5008781;28;20654;-68
2023/06/03 09:50:31;;;;;;;2.60;2.60;;;41.10;39.50;;;39.86;nan;100773.53;5014266;28;20665;-70
2023/06/03 09:53:00;;;;;;;3.37;2.73;;;40.20;39.70;;;39.61;nan;100771.25;5017201;28;20660;-71
2023/06/03 09:55:34;;;;;;;3.47;3.27;;;39.90;40.00;;;39.04;nan;100756.78;5010295;28;20605;-69
2023/06/03 09:58:10;;;;;;;2.93;2.73;;;39.40;40.20;;;38.42;nan;100773.44;5007220;28;21232;-68
2023/06/03 10:00:49;;;;;;;2.60;2.50;;;38.70;40.40;;;37.87;nan;100762.00;5010248;28;20665;-69
2023/06/03 10:03:20;;;;;;;2.40;2.20;;;37.90;40.80;;;37.26;nan;100763.56;5010420;28;20628;-67
2023/06/03 10:05:47;;;;;;;2.70;2.60;;;37.20;41.90;;;35.38;nan;100755.34;5023709;28;20643;-69
2023/06/03 10:08:27;;;;;;;4.00;2.87;;;35.50;43.20;;;34.97;nan;100752.56;5018195;28;21042;-68
2023/06/03 10:10:58;;;;;;;2.30;2.20;;;34.60;44.40;;;34.11;nan;100747.84;5022919;28;20665;-69
2023/06/03 10:13:26;;;;;;;3.17;2.90;;;33.70;44.40;;;33.50;nan;100739.25;5021698;28;20617;-68
2023/06/03 10:15:53;;;;;;;3.60;3.30;;;33.00;45.20;;;32.85;nan;100741.28;5030236;28;20635;-68
2023/06/03 10:18:41;;;;;;;3.27;3.07;;;32.30;46.50;;;32.44;nan;100739.13;5011403;28;21203;-69
2023/06/03 10:21:11;;;;;;;3.63;3.07;;;31.80;46.90;;;31.67;nan;100733.66;5020943;28;20672;-69
2023/06/03 10:23:41;;;;;;;3.60;3.30;;;31.30;47.40;;;30.74;nan;100737.84;5019456;28;20625;-69
2023/06/03 10:26:09;;;;;;;3.43;3.23;;;30.40;48.40;;;30.15;nan;100723.69;5017080;28;20621;-69
2023/06/03 10:28:37;;;;;;;1.53;1.43;;;29.70;48.70;;;29.56;nan;100722.00;5014373;28;20680;-68
2023/06/03 10:31:07;;;;;;;2.87;2.67;;;29.20;49.80;;;29.30;nan;100718.94;5028927;28;21561;-72
2023/06/03 10:33:36;;;;;;;3.60;3.13;;;28.80;50.90;;;29.22;nan;100712.00;5014564;28;21213;-70
2023/06/03 10:36:04;;;;;;;3.40;3.10;;;28.60;51.00;;;29.04;nan;100712.88;5011917;28;20633;-70